Time;durP1;ratioP1;P1;durP2;ratioP2;P2;SDS_P1;SDS_P2;PMS_P1;PMS_P2;Temp;Humidity;BMP_temperature;BMP_pressure;BME280_temperature;BME280_humidity;BME280_pressure;Samples;Min_cycle;Max_cycle;Signal;HPM_P1;HPM_P2
2022/08/13 00:03:37;;;;;;;1.80;1.70;;;;;19.90;98874.00;;;;16768866;28;20212;-48
2022/08/13 00:20:03;;;;;;;2.60;2.40;;;;;18.80;98881.00;;;;16772296;28;20197;-49
2022/08/13 00:28:06;;;;;;;2.50;2.30;;;;;18.40;98880.00;;;;16766593;28;20363;-50
2022/08/13 00:36:09;;;;;;;2.57;2.37;;;;;18.90;98880.00;;;;16785765;28;20685;-48
2022/08/13 00:44:17;;;;;;;3.67;2.27;;;;;18.50;98862.00;;;;16781590;28;20722;-49
2022/08/13 00:52:19;;;;;;;2.83;2.07;;;;;18.50;98854.00;;;;16779838;28;20217;-50
2022/08/13 01:00:25;;;;;;;3.17;2.43;;;;;18.50;98835.00;;;;16782798;28;20205;-49
2022/08/13 01:08:31;;;;;;;2.60;2.40;;;;;19.30;98837.00;;;;16797125;28;20610;-50
2022/08/13 01:16:36;;;;;;;4.00;2.80;;;;;17.70;98846.00;;;;16774811;28;20224;-49
2022/08/13 01:24:41;;;;;;;2.80;2.60;;;;;18.10;98852.00;;;;16769042;28;20222;-50
2022/08/13 01:32:45;;;;;;;2.83;2.63;;;;;18.00;98839.00;;;;16772097;28;20310;-49
2022/08/13 01:40:49;;;;;;;3.13;2.50;;;;;17.80;98835.00;;;;16787915;28;20198;-49
2022/08/13 01:57:21;;;;;;;2.47;2.27;;;;;18.50;98826.00;;;;16735521;28;20620;-49
2022/08/13 02:05:26;;;;;;;4.73;3.43;;;;;17.80;98828.00;;;;16786189;28;20263;-49
2022/08/13 02:13:30;;;;;;;3.07;2.87;;;;;17.90;98843.00;;;;16783204;28;20366;-49
2022/08/13 02:21:33;;;;;;;3.90;2.97;;;;;17.60;98836.00;;;;16770151;28;20236;-50
2022/08/13 02:29:37;;;;;;;4.17;2.80;;;;;17.70;98830.00;;;;16757239;28;20223;-49
2022/08/13 02:37:40;;;;;;;2.90;2.70;;;;;17.50;98843.00;;;;16774431;28;20873;-48
2022/08/13 02:45:45;;;;;;;2.80;2.60;;;;;18.90;98834.00;;;;16787007;28;20248;-50
2022/08/13 02:53:47;;;;;;;2.80;2.60;;;;;17.50;98837.00;;;;16780190;28;20284;-50
2022/08/13 03:01:52;;;;;;;3.40;3.10;;;;;17.60;98844.00;;;;16774436;28;20217;-48
2022/08/13 03:09:55;;;;;;;4.07;2.80;;;;;17.80;98845.00;;;;16788921;28;20260;-49
2022/08/13 03:17:59;;;;;;;3.60;3.10;;;;;17.20;98840.00;;;;16765575;28;20731;-50
2022/08/13 03:26:01;;;;;;;3.80;3.50;;;;;16.90;98852.00;;;;16716789;22;20277;-49
2022/08/13 03:34:06;;;;;;;3.30;3.10;;;;;16.80;98853.00;;;;16692932;28;20768;-48
2022/08/13 03:42:08;;;;;;;3.40;3.20;;;;;17.00;98833.00;;;;16689572;28;20225;-48
2022/08/13 03:50:14;;;;;;;3.07;2.80;;;;;16.50;98846.00;;;;16687814;28;20232;-49
2022/08/13 03:58:17;;;;;;;3.70;3.37;;;;;16.50;98834.00;;;;16704337;28;20229;-49
2022/08/13 04:06:23;;;;;;;6.33;3.40;;;;;16.50;98845.00;;;;16718732;28;20230;-49
2022/08/13 04:14:25;;;;;;;3.37;3.03;;;;;16.20;98846.00;;;;16714636;28;20227;-50
2022/08/13 04:22:29;;;;;;;3.40;3.10;;;;;16.20;98852.00;;;;16725074;28;20309;-50
2022/08/13 04:30:35;;;;;;;3.97;3.53;;;;;16.30;98843.00;;;;16717101;28;20640;-50
2022/08/13 04:38:40;;;;;;;3.87;3.57;;;;;16.10;98838.00;;;;16717127;28;20307;-50
2022/08/13 04:46:42;;;;;;;3.40;3.20;;;;;16.20;98847.00;;;;16720611;28;20230;-50
2022/08/13 04:54:47;;;;;;;2.93;2.73;;;;;16.40;98861.00;;;;16725499;28;20302;-50
2022/08/13 05:02:52;;;;;;;3.70;3.40;;;;;17.10;98861.00;;;;16723688;28;20238;-50
2022/08/13 05:10:56;;;;;;;3.57;3.10;;;;;16.90;98852.00;;;;16723611;28;20273;-50
2022/08/13 05:18:59;;;;;;;3.73;3.43;;;;;17.10;98850.00;;;;16722354;28;20236;-50
2022/08/13 05:27:02;;;;;;;3.37;3.17;;;;;17.60;98855.00;;;;16722483;28;20282;-50
2022/08/13 05:35:08;;;;;;;4.40;3.40;;;;;18.40;98850.00;;;;16721975;28;20214;-50
2022/08/13 05:43:18;;;;;;;3.10;2.80;;;;;18.30;98862.00;;;;16721626;28;20223;-50
2022/08/13 05:51:24;;;;;;;4.00;3.60;;;;;18.90;98854.00;;;;16721230;28;20248;-50
2022/08/13 06:07:48;;;;;;;3.83;3.53;;;;;20.20;98840.00;;;;16720324;28;20201;-50
2022/08/13 06:15:58;;;;;;;4.10;3.70;;;;;20.30;98838.00;;;;16719839;28;20228;-49
2022/08/13 06:24:05;;;;;;;3.90;3.60;;;;;20.70;98837.00;;;;16719587;28;20229;-50
2022/08/13 06:32:11;;;;;;;4.30;3.90;;;;;21.10;98833.00;;;;16717481;28;20229;-50
2022/08/13 06:40:16;;;;;;;6.47;3.90;;;;;21.50;98842.00;;;;16719027;28;20233;-50
2022/08/13 06:48:20;;;;;;;4.60;3.70;;;;;21.60;98847.00;;;;16717888;28;20680;-50
2022/08/13 06:56:24;;;;;;;13.60;3.70;;;;;21.90;98844.00;;;;16717735;28;20228;-50
2022/08/13 07:04:28;;;;;;;3.73;3.33;;;;;21.60;98855.00;;;;16717755;28;20318;-50
2022/08/13 07:12:33;;;;;;;3.17;2.87;;;;;22.00;98858.00;;;;16717131;28;20218;-50
2022/08/13 07:20:38;;;;;;;3.30;3.10;;;;;22.50;98857.00;;;;16717069;28;20218;-51
2022/08/13 07:28:42;;;;;;;3.70;2.77;;;;;22.40;98859.00;;;;16716780;28;20765;-50
2022/08/13 07:36:46;;;;;;;3.00;2.80;;;;;22.90;98853.00;;;;16716878;28;20216;-50
2022/08/13 07:44:50;;;;;;;3.83;3.50;;;;;23.20;98857.00;;;;16727990;28;20225;-49
2022/08/13 07:52:58;;;;;;;7.30;3.47;;;;;23.30;98833.00;;;;16729087;28;20213;-50
2022/08/13 08:01:00;;;;;;;5.33;3.20;;;;;24.10;98838.00;;;;16728616;28;20694;-50
2022/08/13 08:09:07;;;;;;;3.23;2.73;;;;;24.70;98847.00;;;;16728152;28;20228;-50
2022/08/13 08:17:11;;;;;;;3.10;2.80;;;;;25.40;98836.00;;;;16727852;28;20269;-50
2022/08/13 08:25:19;;;;;;;2.93;2.73;;;;;25.20;98835.00;;;;16758461;28;20351;-50
2022/08/13 08:33:26;;;;;;;2.73;2.50;;;;;26.10;98832.00;;;;16793415;28;20808;-50
2022/08/13 08:49:52;;;;;;;2.67;2.47;;;;;26.60;98825.00;;;;16790477;28;20233;-50
2022/08/13 08:58:02;;;;;;;7.73;3.40;;;;;27.30;98832.00;;;;16791767;28;20254;-50
2022/08/13 09:06:08;;;;;;;45.53;6.93;;;;;27.40;98823.00;;;;16791277;28;20732;-50
2022/08/13 09:14:12;;;;;;;24.27;5.30;;;;;27.20;98826.00;;;;16790014;28;20221;-50
2022/08/13 09:22:20;;;;;;;3.03;2.70;;;;;27.60;98825.00;;;;16828951;22;20241;-50
2022/08/13 09:30:23;;;;;;;4.23;2.93;;;;;27.10;98817.00;;;;16849356;28;20775;-52
2022/08/13 09:38:27;;;;;;;4.60;3.10;;;;;27.80;98809.00;;;;16856796;28;20696;-52
2022/08/13 09:46:34;;;;;;;5.03;2.33;;;;;28.80;98806.00;;;;16855903;28;20323;-52
2022/08/13 09:54:40;;;;;;;5.57;2.47;;;;;29.20;98802.00;;;;16856499;28;20282;-52
2022/08/13 10:02:44;;;;;;;3.00;2.70;;;;;28.80;98802.00;;;;16855692;28;20212;-53
2022/08/13 10:10:48;;;;;;;2.73;2.40;;;;;29.20;98804.00;;;;16855738;28;20224;-52
2022/08/13 10:18:55;;;;;;;3.10;2.20;;;;;29.50;98798.00;;;;16855228;28;20537;-54
2022/08/13 10:26:57;;;;;;;2.53;2.33;;;;;30.40;98782.00;;;;16853538;28;20232;-52
2022/08/13 10:35:01;;;;;;;2.70;2.23;;;;;30.80;98776.00;;;;16854064;28;20664;-52
2022/08/13 10:43:06;;;;;;;2.50;2.30;;;;;31.00;98771.00;;;;16852780;28;20224;-52
2022/08/13 10:51:10;;;;;;;2.90;2.17;;;;;30.50;98760.00;;;;16852930;28;20228;-53
2022/08/13 10:59:12;;;;;;;3.57;2.00;;;;;32.10;98756.00;;;;16852060;28;20181;-53
2022/08/13 11:07:16;;;;;;;2.10;1.90;;;;;32.50;98741.00;;;;16852187;28;20688;-52
2022/08/13 11:15:21;;;;;;;1.77;1.67;;;;;32.10;98741.00;;;;16852276;28;20230;-54
2022/08/13 11:23:25;;;;;;;2.17;1.97;;;;;33.00;98741.00;;;;16852212;28;20302;-53
2022/08/13 11:31:27;;;;;;;2.10;1.93;;;;;32.90;98749.00;;;;16851248;28;20228;-53
2022/08/13 11:39:31;;;;;;;3.33;2.43;;;;;32.00;98718.00;;;;16850393;28;20208;-54
2022/08/13 11:47:40;;;;;;;2.40;2.20;;;;;34.50;98743.00;;;;16850245;28;20230;-53
2022/08/13 11:55:43;;;;;;;2.27;2.00;;;;;33.00;98729.00;;;;16850791;28;20307;-53
2022/08/13 12:03:46;;;;;;;2.07;1.97;;;;;33.30;98720.00;;;;16850714;28;20219;-53
2022/08/13 12:11:50;;;;;;;2.30;2.10;;;;;33.10;98716.00;;;;16851375;28;20236;-53
2022/08/13 12:19:52;;;;;;;4.80;2.03;;;;;33.70;98703.00;;;;16850410;28;20307;-54
2022/08/13 12:28:18;;;;;;;1.90;1.80;;;;;35.30;98712.00;;;;16857082;28;20208;-55
2022/08/13 12:36:20;;;;;;;2.83;2.23;;;;;34.30;98707.00;;;;16861240;28;20262;-53
2022/08/13 12:44:24;;;;;;;2.33;2.07;;;;;34.60;98696.00;;;;16861113;28;20788;-53
2022/08/13 12:52:27;;;;;;;3.30;2.07;;;;;35.20;98685.00;;;;16860368;28;20701;-53
2022/08/13 13:00:31;;;;;;;2.23;2.00;;;;;35.60;98688.00;;;;16860783;28;20672;-54
2022/08/13 13:08:33;;;;;;;2.50;1.83;;;;;34.50;98688.00;;;;16859721;28;20239;-53
2022/08/13 13:16:38;;;;;;;2.47;1.90;;;;;35.90;98687.00;;;;16858892;28;20642;-52
2022/08/13 13:24:40;;;;;;;2.20;1.53;;;;;37.20;98686.00;;;;16858458;28;20228;-53
2022/08/13 13:32:46;;;;;;;1.97;1.53;;;;;36.10;98686.00;;;;16857686;28;20216;-53
2022/08/13 13:40:52;;;;;;;2.80;1.70;;;;;36.60;98679.00;;;;16856860;28;20244;-53
2022/08/13 13:48:56;;;;;;;2.03;1.80;;;;;38.60;98684.00;;;;16856775;28;20216;-53
2022/08/13 13:56:58;;;;;;;1.93;1.53;;;;;38.40;98671.00;;;;16855462;28;20201;-53
2022/08/13 14:05:02;;;;;;;1.43;1.33;;;;;39.30;98668.00;;;;16856092;28;20305;-53
2022/08/13 14:13:06;;;;;;;3.27;1.70;;;;;37.30;98671.00;;;;16855308;28;20220;-53
2022/08/13 14:21:11;;;;;;;2.13;1.93;;;;;37.50;98665.00;;;;16854826;28;20217;-54
2022/08/13 14:29:16;;;;;;;2.10;1.47;;;;;38.60;98656.00;;;;16854965;28;20220;-53
2022/08/13 14:37:20;;;;;;;2.70;1.90;;;;;36.10;98643.00;;;;16854143;28;20236;-53
2022/08/13 14:45:43;;;;;;;1.63;1.50;;;;;35.90;98645.00;;;;16853158;28;20294;-53
2022/08/13 14:53:47;;;;;;;1.80;1.63;;;;;35.20;98627.00;;;;16852386;28;20220;-54
2022/08/13 15:01:49;;;;;;;1.33;1.23;;;;;37.50;98627.00;;;;16852989;28;20726;-54
2022/08/13 15:09:54;;;;;;;2.20;1.33;;;;;38.00;98617.00;;;;16853198;28;20311;-53
2022/08/13 15:17:59;;;;;;;2.50;2.20;;;;;40.10;98612.00;;;;16852381;28;20276;-54
2022/08/13 15:26:06;;;;;;;2.00;1.73;;;;;40.00;98618.00;;;;16872689;22;20228;-51
2022/08/13 15:34:10;;;;;;;1.77;1.40;;;;;40.70;98607.00;;;;16815838;28;20233;-51
2022/08/13 15:42:14;;;;;;;1.63;1.53;;;;;39.80;98590.00;;;;16781442;28;20305;-50
2022/08/13 15:50:17;;;;;;;3.40;2.27;;;;;39.60;98584.00;;;;16788497;28;20217;-49
2022/08/13 15:58:21;;;;;;;2.10;1.63;;;;;40.30;98574.00;;;;16785017;28;20205;-49
2022/08/13 16:06:28;;;;;;;1.80;1.70;;;;;41.20;98571.00;;;;16810261;28;20253;-50
2022/08/13 16:14:33;;;;;;;1.70;1.60;;;;;40.70;98574.00;;;;16822490;28;20233;-49
2022/08/13 16:22:36;;;;;;;1.50;1.40;;;;;40.30;98562.00;;;;16808646;28;20228;-49
2022/08/13 16:30:41;;;;;;;1.60;1.50;;;;;39.30;98549.00;;;;16811132;28;20235;-49
2022/08/13 16:38:44;;;;;;;2.10;1.70;;;;;40.20;98554.00;;;;16810262;28;20198;-49
2022/08/13 16:46:49;;;;;;;1.60;1.50;;;;;40.90;98547.00;;;;16814103;28;20642;-49
2022/08/13 16:54:52;;;;;;;3.57;1.80;;;;;42.80;98541.00;;;;16800961;28;20255;-49
2022/08/13 17:11:17;;;;;;;3.00;1.70;;;;;37.30;98528.00;;;;16792131;28;20229;-46
2022/08/13 17:19:21;;;;;;;3.10;1.70;;;;;39.10;98520.00;;;;16792271;28;20201;-49
2022/08/13 17:27:24;;;;;;;2.00;1.90;;;;;36.80;98508.00;;;;16792136;28;20241;-49
2022/08/13 17:35:28;;;;;;;1.90;1.80;;;;;36.90;98512.00;;;;16793174;28;20236;-49
2022/08/13 17:43:30;;;;;;;2.20;2.10;;;;;39.20;98516.00;;;;16788848;28;20310;-49
2022/08/13 17:51:34;;;;;;;3.23;2.30;;;;;38.80;98513.00;;;;16789937;28;20240;-49
2022/08/13 17:59:37;;;;;;;3.80;2.60;;;;;38.30;98516.00;;;;16788741;28;20189;-49
2022/08/13 18:07:40;;;;;;;14.83;10.50;;;;;36.50;98507.00;;;;16788421;28;20217;-49
2022/08/13 18:15:43;;;;;;;3.00;2.80;;;;;32.40;98518.00;;;;16787597;28;20224;-49
2022/08/13 18:23:47;;;;;;;3.03;2.73;;;;;28.80;98519.00;;;;16787898;28;20224;-49
2022/08/13 18:31:51;;;;;;;3.30;3.00;;;;;27.60;98504.00;;;;16787392;28;20229;-48
2022/08/13 18:39:55;;;;;;;3.80;3.50;;;;;27.00;98513.00;;;;16787205;28;20205;-48
2022/08/13 18:47:57;;;;;;;4.23;3.93;;;;;26.00;98522.00;;;;16785753;28;20212;-48
2022/08/13 18:56:01;;;;;;;4.63;4.23;;;;;25.80;98514.00;;;;16785978;28;20244;-48
2022/08/13 19:04:04;;;;;;;4.50;3.40;;;;;25.50;98520.00;;;;16785800;28;20249;-48
2022/08/13 19:12:08;;;;;;;4.97;3.70;;;;;24.60;98527.00;;;;16785099;28;20225;-48
2022/08/13 19:20:12;;;;;;;3.17;2.97;;;;;24.30;98539.00;;;;16784814;28;20280;-49
2022/08/13 19:28:17;;;;;;;3.80;3.50;;;;;24.30;98536.00;;;;16784620;28;20221;-48
2022/08/13 19:36:20;;;;;;;4.00;3.70;;;;;24.20;98542.00;;;;16790863;28;20378;-48
2022/08/13 19:44:25;;;;;;;4.67;4.27;;;;;23.30;98549.00;;;;16797570;28;20220;-48
2022/08/13 19:52:29;;;;;;;4.60;3.67;;;;;23.30;98553.00;;;;16797737;28;20221;-47
2022/08/13 20:00:33;;;;;;;4.13;3.83;;;;;23.90;98559.00;;;;16796845;28;20224;-49
2022/08/13 20:08:35;;;;;;;5.07;4.10;;;;;23.30;98564.00;;;;16795761;28;20689;-48
2022/08/13 20:16:39;;;;;;;4.93;4.53;;;;;22.80;98574.00;;;;16796617;28;20224;-48
2022/08/13 20:24:43;;;;;;;5.37;4.37;;;;;22.40;98560.00;;;;16795647;28;20311;-49
2022/08/13 20:32:48;;;;;;;4.13;3.73;;;;;22.30;98558.00;;;;16794750;28;20221;-48
2022/08/13 20:40:52;;;;;;;5.57;4.13;;;;;23.10;98562.00;;;;16794375;28;20241;-49
2022/08/13 20:48:56;;;;;;;5.00;4.60;;;;;22.50;98566.00;;;;16792122;28;20751;-48
2022/08/13 20:56:58;;;;;;;5.23;4.73;;;;;22.20;98562.00;;;;16793436;28;20221;-48
2022/08/13 21:05:02;;;;;;;6.97;5.80;;;;;22.10;98556.00;;;;16792655;28;20270;-48
2022/08/13 21:13:05;;;;;;;4.20;3.87;;;;;21.80;98560.00;;;;16792778;28;20225;-48
2022/08/13 21:21:09;;;;;;;4.43;4.13;;;;;21.60;98560.00;;;;16812799;22;20271;-47
2022/08/13 21:29:12;;;;;;;4.70;4.30;;;;;22.00;98556.00;;;;16754615;28;20400;-53
2022/08/13 21:37:15;;;;;;;4.60;3.60;;;;;21.50;98548.00;;;;16673564;28;20219;-51
2022/08/13 21:45:18;;;;;;;5.43;3.90;;;;;21.20;98548.00;;;;16657084;28;20273;-50
2022/08/13 21:53:22;;;;;;;4.53;4.23;;;;;21.00;98549.00;;;;16658013;28;20237;-50
2022/08/13 22:01:24;;;;;;;3.90;3.57;;;;;21.10;98546.00;;;;16657609;28;20586;-50
2022/08/13 22:09:28;;;;;;;5.00;4.70;;;;;20.90;98555.00;;;;16658839;28;20250;-50
2022/08/13 22:17:31;;;;;;;4.27;3.97;;;;;20.50;98573.00;;;;16657224;28;20302;-51
2022/08/13 22:25:35;;;;;;;5.00;4.53;;;;;20.20;98572.00;;;;16656641;28;20321;-49
2022/08/13 22:33:38;;;;;;;4.37;4.07;;;;;20.70;98580.00;;;;16655131;28;20313;-50
2022/08/13 22:41:41;;;;;;;4.73;4.43;;;;;20.10;98593.00;;;;16654464;28;20214;-51
2022/08/13 22:49:46;;;;;;;7.57;4.60;;;;;20.30;98582.00;;;;16654746;28;20233;-50
2022/08/13 22:57:50;;;;;;;4.27;3.87;;;;;20.00;98580.00;;;;16655128;28;20292;-50
2022/08/13 23:05:54;;;;;;;4.70;4.27;;;;;19.70;98582.00;;;;16653580;28;20272;-50
2022/08/13 23:13:58;;;;;;;5.13;4.43;;;;;19.80;98575.00;;;;16652186;28;20230;-50
2022/08/13 23:22:00;;;;;;;4.10;3.80;;;;;19.70;98572.00;;;;16652378;28;20802;-49
2022/08/13 23:30:05;;;;;;;4.17;3.77;;;;;19.70;98572.00;;;;16652724;28;20597;-51
2022/08/13 23:38:09;;;;;;;3.40;3.10;;;;;19.50;98564.00;;;;16652837;28;20222;-50
2022/08/13 23:46:12;;;;;;;4.23;3.83;;;;;19.40;98546.00;;;;16652813;28;20217;-50
2022/08/13 23:54:15;;;;;;;4.70;3.80;;;;;19.20;98540.00;;;;16666569;28;20222;-50
